Close

Questo sito utlizza cookie. Può leggere come li usiamo nella nostra Privacy Policy.

Ronchi Tower
Ronchi Tower

From Facebook

METAR & TAF

2023/01/30 20:50 LIPQ 302050Z AUTO 02004KT 4100 BR NCD M01/M01 Q1017
2023/01/30 18:39 TAF LIPQ 301700Z 3018/3118 VRB05KT CAVOK BECMG 3022/3024 3000 BCFG TEMPO 3100/3106 0800 FZFG BECMG 3107/3109 9999
2023/01/30 20:50 LIPZ 302050Z 34005KT 300V050 6000 NSC 01/M02 Q1017 NOSIG
2023/01/30 18:39 TAF LIPZ 301700Z 3018/3124 VRB05KT CAVOK BECMG 3022/3024 3000 BR TEMPO 3102/3107 0800 BCFG BECMG 3107/3109 9999
2023/01/30 20:50 LIPH 302050Z VRB01KT CAVOK M01/M02 Q1017
2023/01/30 18:39 TAF LIPH 301700Z 3018/3118 VRB04KT CAVOK BECMG 3021/3023 3000 BR TEMPO 3100/3106 0800 FZFG BECMG 3106/3108 9000
2023/01/30 20:50 LIRF 302050Z 07005KT CAVOK 03/02 Q1018 NOSIG
2023/01/30 18:39 TAF LIRF 301700Z 3018/3124 32010KT CAVOK BECMG 3018/3020 05007KT
2023/01/30 20:50 LIML 302050Z 26007KT CAVOK 06/M01 Q1015 NOSIG
2023/01/30 18:39 TAF LIML 301700Z 3018/3118 VRB05KT 9000 NSC TEMPO 3102/3108 3000 BCFG
2023/01/30 20:50 EDDM 302050Z AUTO 26016KT CAVOK 02/M01 Q1022 NOSIG
2023/01/30 19:26 TAF AMD EDDM 301916Z 3019/3124 26015G25KT 9999 FEW015 BKN035 PROB30 TEMPO 3019/3024 3000 SHSN BKN013TCU BECMG 3102/3104 26012KT BECMG 3109/3111 26015G25KT TEMPO 3120/3124 4500 SNRA
2023/01/30 20:50 EGSS 302050Z VRB02KT CAVOK 03/01 Q1027
2023/01/30 18:39 TAF EGSS 301656Z 3018/3124 30010KT 9999 SCT032 BECMG 3021/3024 24008KT TEMPO 3106/3112 BKN010 PROB40 TEMPO 3106/3111 6000 -RADZ BKN005 BECMG 3110/3113 30012KT PROB30 TEMPO 3112/3120 28015G25KT
2023/01/30 20:50 EDDF 302050Z AUTO 25010KT 9999 FEW040 06/01 Q1024 NOSIG
2023/01/30 18:35 TAF EDDF 301700Z 3018/3124 23012KT 9999 BKN035 BECMG 3023/3102 22007KT PROB30 TEMPO 3102/3108 2500 BR BECMG 3107/3110 21012KT BKN014 PROB30 TEMPO 3111/3115 21015G25KT 4000 RA PROB30 TEMPO 3115/3121 21015G25KT 2500 RADZ

FlightRadar24

Radar Meteo

Traffic data

Agosto 2018

Passeggeri: 63892-12,9% (rank: 23)
Nazionali 34490 -19,8%
Internazionali 29193 -3,0%

Movimenti: 1307+11,7% (rank: 24)
Tot commerciale 556 -7,2%
Aviazione generale 751 +31,5%

Cargo (tons): 20,6+62,5% (rank: 21)

Gennaio - Agosto 2018

Passeggeri: 507438-3,5% (rank: 23)
Nazionali 322655 -4,9%
Internazionali 182927 -0,7%

Movimenti: 10366-4,25 (rank: 22)
Tot commerciale 5328 -11,0%
Aviazione generale 5038 +4,2%

Cargo (tons): 299,2+61,9% (rank: 20)

Photo

Reims F152 II
Reims F152 II
Distinct views: 29
Reims F152 II
Reims F152 II
Distinct views: 125
Reims F152 II
Reims F152 II
Distinct views: 271
McDonnell Douglas MD-87
McDonnell Douglas MD-87
Total views: 2098